Time;durP1;ratioP1;P1;durP2;ratioP2;P2;SDS_P1;SDS_P2;PMS_P1;PMS_P2;Temp;Humidity;BMP_temperature;BMP_pressure;BME280_temperature;BME280_humidity;BME280_pressure;Samples;Min_cycle;Max_cycle;Signal;HPM_P1;HPM_P2
2023/12/06 00:02:03;;;;;;;5.28;3.85;;;15.40;56.60;;;;;;6005217;22;45396;-64
2023/12/06 00:04:31;;;;;;;5.05;3.20;;;15.40;56.70;;;;;;5990585;22;45489;-65
2023/12/06 00:06:58;;;;;;;5.13;3.42;;;15.40;56.60;;;;;;5987838;22;45229;-65
2023/12/06 00:09:30;;;;;;;4.63;3.30;;;15.40;56.20;;;;;;5975863;22;47920;-65
2023/12/06 00:12:18;;;;;;;5.68;3.53;;;15.40;56.10;;;;;;6005155;22;45237;-64
2023/12/06 00:15:19;;;;;;;5.60;3.78;;;15.40;56.10;;;;;;5988608;22;45228;-64
2023/12/06 00:17:46;;;;;;;5.38;3.45;;;15.40;55.70;;;;;;5965345;22;45420;-64
2023/12/06 00:20:23;;;;;;;5.95;3.92;;;15.40;55.50;;;;;;5990564;22;45364;-65
2023/12/06 00:22:49;;;;;;;5.43;3.60;;;15.40;55.60;;;;;;5987955;22;45417;-65
2023/12/06 00:25:21;;;;;;;6.53;4.25;;;15.40;55.70;;;;;;5984025;22;45323;-64
2023/12/06 00:28:17;;;;;;;5.40;3.70;;;15.40;55.80;;;;;;5996398;22;45283;-64
2023/12/06 00:31:17;;;;;;;4.72;3.40;;;15.40;55.60;;;;;;5975210;22;46100;-64
2023/12/06 00:34:02;;;;;;;6.55;4.05;;;15.40;55.80;;;;;;5979295;22;45610;-64
2023/12/06 00:36:36;;;;;;;6.07;4.32;;;15.40;55.90;;;;;;5989304;22;45198;-65
2023/12/06 00:39:29;;;;;;;7.88;4.43;;;15.40;55.90;;;;;;5980661;22;45389;-64
2023/12/06 00:42:17;;;;;;;6.30;4.22;;;15.40;55.70;;;;;;5992649;22;46372;-64
2023/12/06 00:45:08;;;;;;;6.78;4.20;;;15.40;55.60;;;;;;5978473;22;45249;-64
2023/12/06 00:47:38;;;;;;;7.53;4.63;;;15.40;55.50;;;;;;5962544;22;45307;-64
2023/12/06 00:50:34;;;;;;;6.57;4.70;;;15.40;55.20;;;;;;5996231;22;45347;-64
2023/12/06 00:53:20;;;;;;;7.05;4.80;;;15.30;55.50;;;;;;5979326;22;46348;-64
2023/12/06 00:55:47;;;;;;;7.38;4.55;;;15.40;55.40;;;;;;5956563;22;45490;-64
2023/12/06 00:58:28;;;;;;;7.18;4.70;;;15.30;55.30;;;;;;6000476;22;45291;-64
2023/12/06 01:01:07;;;;;;;8.02;4.97;;;15.30;55.50;;;;;;5971288;22;45047;-64
2023/12/06 01:03:35;;;;;;;7.70;5.03;;;15.30;55.40;;;;;;5967219;22;46086;-64
2023/12/06 01:06:19;;;;;;;8.32;5.15;;;15.30;55.40;;;;;;5959271;22;45406;-64
2023/12/06 01:08:48;;;;;;;9.55;4.97;;;15.30;55.30;;;;;;5980429;22;45236;-64
2023/12/06 01:11:16;;;;;;;8.70;5.35;;;15.30;55.40;;;;;;5982354;22;45314;-64
2023/12/06 01:13:44;;;;;;;9.43;5.78;;;15.30;55.10;;;;;;5950886;22;46629;-64
2023/12/06 01:16:17;;;;;;;7.05;4.93;;;15.30;56.30;;;;;;6030717;22;45130;-63
2023/12/06 01:18:47;;;;;;;8.35;5.22;;;15.30;55.30;;;;;;5960952;22;45299;-64
2023/12/06 01:21:23;;;;;;;8.80;5.47;;;15.30;55.20;;;;;;5978639;22;45162;-63
2023/12/06 01:23:59;;;;;;;10.00;6.05;;;15.30;55.00;;;;;;5982380;22;46276;-63
2023/12/06 01:27:05;;;;;;;9.30;5.93;;;15.30;55.10;;;;;;5971006;22;45261;-63
2023/12/06 01:29:42;;;;;;;11.10;6.03;;;15.30;55.00;;;;;;5982253;22;45377;-63
2023/12/06 01:32:14;;;;;;;11.35;6.35;;;15.30;55.10;;;;;;5979000;22;45525;-63
2023/12/06 01:34:42;;;;;;;12.05;7.00;;;15.30;55.00;;;;;;5972744;22;46796;-64
2023/12/06 01:37:22;;;;;;;12.00;6.95;;;15.30;54.30;;;;;;5962419;22;45351;-63
2023/12/06 01:39:48;;;;;;;12.05;7.57;;;15.20;53.30;;;;;;5988168;22;45408;-64
2023/12/06 01:42:15;;;;;;;12.48;7.75;;;15.30;53.20;;;;;;5968069;22;45262;-64
2023/12/06 01:44:58;;;;;;;13.20;8.90;;;15.30;53.00;;;;;;5989919;22;47487;-63
2023/12/06 01:47:42;;;;;;;16.08;8.63;;;15.20;52.60;;;;;;5983393;22;45198;-63
2023/12/06 01:50:44;;;;;;;16.67;10.15;;;15.20;52.20;;;;;;5981212;22;45287;-64
2023/12/06 01:53:52;;;;;;;14.80;8.73;;;15.20;52.20;;;;;;5952980;22;45518;-63
2023/12/06 01:56:25;;;;;;;15.85;9.48;;;15.20;51.90;;;;;;5966471;22;46427;-64
2023/12/06 01:58:59;;;;;;;12.48;8.23;;;15.20;51.50;;;;;;5971729;22;45245;-63
2023/12/06 02:01:46;;;;;;;14.55;8.98;;;15.20;51.50;;;;;;6024872;22;45403;-63
2023/12/06 02:04:13;;;;;;;14.68;8.35;;;15.20;51.10;;;;;;5964857;22;45090;-63
2023/12/06 02:10:00;;;;;;;13.13;8.77;;;15.20;50.80;;;;;;5956376;22;45507;-64
2023/12/06 02:12:50;;;;;;;15.48;9.65;;;15.20;50.60;;;;;;5966538;22;45129;-64
2023/12/06 02:15:18;;;;;;;15.27;8.73;;;15.20;50.70;;;;;;5959730;22;45075;-64
2023/12/06 02:20:38;;;;;;;14.05;8.50;;;15.10;50.40;;;;;;5937433;22;45261;-65
2023/12/06 02:23:44;;;;;;;16.00;9.13;;;15.10;54.00;;;;;;5989394;22;45255;-64
2023/12/06 02:26:37;;;;;;;14.38;8.65;;;15.10;52.20;;;;;;5963853;22;45190;-64
2023/12/06 02:29:07;;;;;;;13.30;8.50;;;15.10;51.10;;;;;;5991687;22;45557;-64
2023/12/06 02:31:46;;;;;;;14.98;8.82;;;15.10;51.10;;;;;;5996278;22;45129;-64
2023/12/06 02:34:42;;;;;;;13.55;9.10;;;15.00;50.20;;;;;;5968475;22;45492;-64
2023/12/06 02:40:57;;;;;;;13.40;8.43;;;15.00;49.30;;;;;;5944048;22;45283;-64
2023/12/06 02:43:42;;;;;;;14.77;8.85;;;15.00;49.30;;;;;;5954052;22;45273;-64
2023/12/06 02:46:08;;;;;;;14.23;9.18;;;15.00;49.30;;;;;;5975034;22;45236;-64
2023/12/06 02:48:54;;;;;;;12.27;7.53;;;15.10;49.40;;;;;;5994979;22;45281;-64
2023/12/06 02:51:22;;;;;;;13.55;8.57;;;15.10;49.40;;;;;;5975559;22;47137;-64
2023/12/06 02:54:14;;;;;;;13.57;8.38;;;15.10;49.40;;;;;;6003118;22;45964;-64
2023/12/06 02:56:41;;;;;;;12.43;8.40;;;15.10;49.50;;;;;;6008821;22;45183;-64
2023/12/06 02:59:09;;;;;;;13.80;7.68;;;15.10;49.40;;;;;;5968938;22;45269;-64
2023/12/06 03:01:49;;;;;;;11.55;7.68;;;15.10;49.40;;;;;;6017625;22;45775;-64
2023/12/06 03:04:29;;;;;;;11.52;7.43;;;15.10;50.60;;;;;;5954992;22;45332;-64
2023/12/06 03:07:22;;;;;;;11.70;7.75;;;15.10;49.40;;;;;;5977930;22;45330;-63
2023/12/06 03:09:49;;;;;;;10.55;7.38;;;15.10;49.20;;;;;;5983258;22;45316;-64
2023/12/06 03:12:42;;;;;;;10.30;7.18;;;15.10;49.40;;;;;;6006849;22;46518;-64
2023/12/06 03:15:18;;;;;;;10.70;7.07;;;15.10;49.10;;;;;;5966204;22;45275;-64
2023/12/06 03:18:13;;;;;;;11.23;6.32;;;15.10;49.40;;;;;;5993230;22;45330;-64
2023/12/06 03:20:40;;;;;;;10.63;7.63;;;15.10;49.20;;;;;;5976068;22;45221;-64
2023/12/06 03:23:07;;;;;;;8.75;6.32;;;15.10;49.40;;;;;;5977656;22;46460;-64
2023/12/06 03:25:47;;;;;;;11.13;7.35;;;15.10;49.30;;;;;;6017779;22;45091;-64
2023/12/06 03:28:31;;;;;;;10.85;6.95;;;15.10;48.80;;;;;;6022936;22;45182;-64
2023/12/06 03:31:27;;;;;;;10.30;6.90;;;15.10;48.50;;;;;;5997328;22;45249;-64
2023/12/06 03:34:20;;;;;;;10.00;6.68;;;15.10;48.70;;;;;;5993178;22;46629;-64
2023/12/06 03:37:11;;;;;;;10.18;6.60;;;15.10;48.50;;;;;;5979092;22;45318;-64
2023/12/06 03:39:38;;;;;;;11.35;6.28;;;15.10;48.60;;;;;;5993056;22;45130;-64
2023/12/06 03:42:36;;;;;;;10.82;6.72;;;15.10;48.70;;;;;;5985580;22;45303;-64
2023/12/06 03:45:24;;;;;;;10.90;7.45;;;15.10;48.30;;;;;;5988348;22;46122;-64
2023/12/06 03:47:52;;;;;;;9.60;6.43;;;15.10;48.20;;;;;;5944366;22;45195;-64
2023/12/06 03:50:31;;;;;;;10.45;7.20;;;15.10;48.30;;;;;;5983497;22;45197;-64
2023/12/06 03:53:16;;;;;;;11.20;7.13;;;15.10;48.30;;;;;;6000704;22;45376;-64
2023/12/06 03:55:43;;;;;;;9.95;6.72;;;15.10;48.20;;;;;;5975096;22;47049;-64
2023/12/06 03:58:10;;;;;;;11.35;7.00;;;15.10;48.10;;;;;;5962823;22;45255;-64
2023/12/06 04:00:38;;;;;;;10.07;6.68;;;15.10;48.30;;;;;;5991780;22;45448;-64
2023/12/06 04:03:33;;;;;;;9.45;6.65;;;15.10;48.40;;;;;;5986258;22;45262;-63
2023/12/06 04:06:26;;;;;;;12.45;7.13;;;15.00;48.40;;;;;;5983031;22;46813;-63
2023/12/06 04:09:10;;;;;;;11.88;7.50;;;15.00;48.20;;;;;;6013501;22;45158;-64
2023/12/06 04:11:37;;;;;;;12.75;7.43;;;15.00;48.10;;;;;;6002172;22;45351;-64
2023/12/06 04:14:35;;;;;;;10.20;6.78;;;15.10;48.20;;;;;;5988845;22;45341;-63
2023/12/06 04:17:23;;;;;;;11.43;7.32;;;15.10;48.10;;;;;;5969447;22;47361;-64
2023/12/06 04:20:18;;;;;;;11.48;6.97;;;15.10;48.10;;;;;;5977706;22;45212;-63
2023/12/06 04:23:21;;;;;;;13.82;7.93;;;15.10;48.00;;;;;;5993269;22;45320;-64
2023/12/06 04:25:55;;;;;;;11.32;7.03;;;15.10;47.90;;;;;;6018988;22;45347;-64
2023/12/06 04:28:48;;;;;;;10.80;6.85;;;15.10;47.90;;;;;;5972880;22;46602;-63
2023/12/06 04:31:39;;;;;;;13.15;7.53;;;15.10;47.70;;;;;;6010216;22;45352;-63
2023/12/06 04:34:27;;;;;;;12.23;7.20;;;15.10;47.60;;;;;;5996534;22;45471;-63
2023/12/06 04:37:04;;;;;;;9.82;6.95;;;15.10;47.70;;;;;;5975614;22;45139;-63
2023/12/06 04:39:36;;;;;;;11.35;6.88;;;15.10;47.80;;;;;;5999560;22;46842;-63
2023/12/06 04:42:21;;;;;;;12.52;7.88;;;15.10;47.90;;;;;;6014149;22;45203;-63
2023/12/06 04:45:17;;;;;;;12.48;7.50;;;15.10;47.80;;;;;;6007496;22;45195;-63
2023/12/06 04:47:57;;;;;;;11.98;7.70;;;15.10;47.80;;;;;;5994499;22;45187;-63
2023/12/06 04:50:38;;;;;;;11.82;7.32;;;15.10;47.90;;;;;;6030188;22;46025;-63
2023/12/06 04:53:37;;;;;;;11.77;7.82;;;15.10;47.90;;;;;;5984816;22;45270;-63
2023/12/06 04:56:15;;;;;;;11.80;7.65;;;15.10;47.80;;;;;;6006644;22;45220;-63
2023/12/06 04:58:42;;;;;;;10.18;6.60;;;15.10;47.90;;;;;;5967183;22;45046;-63
2023/12/06 05:01:18;;;;;;;12.00;6.85;;;15.10;47.90;;;;;;5970363;22;45706;-62
2023/12/06 05:03:48;;;;;;;12.48;8.07;;;15.10;49.40;;;;;;5949027;22;45102;-63
2023/12/06 05:06:24;;;;;;;10.20;6.80;;;15.10;49.40;;;;;;5972771;22;45394;-63
2023/12/06 05:08:52;;;;;;;10.38;6.82;;;15.20;49.50;;;;;;6006592;22;45299;-63
2023/12/06 05:11:53;;;;;;;10.63;6.55;;;15.10;49.00;;;;;;6005219;22;46384;-63
2023/12/06 05:14:30;;;;;;;9.80;6.43;;;15.10;48.80;;;;;;5982558;22;45263;-63
2023/12/06 05:17:07;;;;;;;11.15;6.75;;;15.10;48.80;;;;;;5990695;22;45329;-63
2023/12/06 05:19:56;;;;;;;14.30;7.15;;;15.10;48.60;;;;;;5986814;22;45063;-63
2023/12/06 05:22:24;;;;;;;12.98;6.97;;;15.10;48.50;;;;;;6018990;22;46132;-63
2023/12/06 05:24:53;;;;;;;12.35;7.13;;;15.10;48.60;;;;;;5991694;22;45266;-63
2023/12/06 05:27:21;;;;;;;11.80;6.97;;;15.10;48.40;;;;;;5990443;22;45228;-64
2023/12/06 05:29:53;;;;;;;10.57;7.30;;;15.10;48.30;;;;;;5965234;22;45338;-63
2023/12/06 05:32:19;;;;;;;11.63;7.32;;;15.10;48.50;;;;;;6000964;22;46024;-63
2023/12/06 05:34:48;;;;;;;9.68;6.30;;;15.10;48.40;;;;;;6001677;22;45070;-64
2023/12/06 05:37:24;;;;;;;9.07;6.30;;;15.10;48.50;;;;;;6007061;22;45287;-62
2023/12/06 05:40:18;;;;;;;9.90;6.40;;;15.10;48.40;;;;;;6000387;22;45198;-63
2023/12/06 05:43:19;;;;;;;10.55;6.82;;;15.10;48.40;;;;;;5998078;22;46559;-63
2023/12/06 05:45:47;;;;;;;8.95;6.18;;;15.10;48.30;;;;;;5981164;22;45246;-63
2023/12/06 05:48:32;;;;;;;9.52;6.07;;;15.10;48.50;;;;;;5989576;22;45154;-63
2023/12/06 05:50:59;;;;;;;11.50;6.50;;;15.10;49.10;;;;;;6004247;22;45368;-63
2023/12/06 05:53:26;;;;;;;8.90;6.05;;;15.20;49.50;;;;;;5994156;22;46287;-63
2023/12/06 05:55:57;;;;;;;9.77;6.45;;;15.20;49.50;;;;;;6006870;22;45290;-62
2023/12/06 05:58:43;;;;;;;9.27;5.65;;;15.20;49.50;;;;;;5980923;22;45306;-62
2023/12/06 06:01:26;;;;;;;7.47;5.03;;;15.20;49.50;;;;;;6009762;22;45301;-62
2023/12/06 06:06:44;;;;;;;8.05;5.25;;;15.20;49.50;;;;;;5974653;22;45138;-63
2023/12/06 06:09:32;;;;;;;9.07;5.50;;;15.20;49.50;;;;;;5996937;22;45642;-63
2023/12/06 06:12:00;;;;;;;8.27;5.40;;;15.20;49.50;;;;;;5980019;22;45035;-63
2023/12/06 06:14:27;;;;;;;8.10;5.45;;;15.20;49.50;;;;;;5973175;22;47401;-62
2023/12/06 06:17:07;;;;;;;8.27;5.05;;;15.20;49.50;;;;;;5972297;22;45533;-62
2023/12/06 06:19:56;;;;;;;6.97;4.88;;;15.20;49.50;;;;;;5993187;22;45373;-63
2023/12/06 06:22:38;;;;;;;7.80;5.35;;;15.20;49.50;;;;;;5954598;22;45243;-62
2023/12/06 06:25:06;;;;;;;8.43;5.35;;;15.20;49.50;;;;;;5984111;22;47597;-63
2023/12/06 06:28:00;;;;;;;8.23;5.53;;;15.20;49.50;;;;;;5993716;22;45312;-62
2023/12/06 06:30:27;;;;;;;7.00;5.03;;;15.20;49.50;;;;;;5988405;22;45268;-62
2023/12/06 06:33:08;;;;;;;7.90;5.47;;;15.20;49.50;;;;;;5997853;22;45105;-60
2023/12/06 06:35:57;;;;;;;7.00;5.20;;;15.20;48.80;;;;;;5988080;22;47483;-62
2023/12/06 06:38:37;;;;;;;7.72;5.50;;;15.20;48.50;;;;;;5981116;22;45235;-62
2023/12/06 06:41:16;;;;;;;7.28;4.88;;;15.20;48.30;;;;;;6000830;22;45368;-62
2023/12/06 06:43:57;;;;;;;8.10;5.43;;;15.20;48.60;;;;;;6003290;22;45255;-62
2023/12/06 06:46:25;;;;;;;8.05;4.95;;;15.20;48.30;;;;;;6017760;22;46585;-61
2023/12/06 06:49:20;;;;;;;8.88;4.88;;;15.20;48.30;;;;;;6028700;22;45294;-62
2023/12/06 06:51:47;;;;;;;6.88;5.13;;;15.20;48.10;;;;;;5979988;22;45368;-62
2023/12/06 06:54:34;;;;;;;7.43;4.78;;;15.30;48.10;;;;;;5987521;22;45180;-62
2023/12/06 06:57:14;;;;;;;6.95;4.32;;;15.30;48.30;;;;;;5988766;22;47397;-62
2023/12/06 07:00:23;;;;;;;6.28;4.38;;;15.30;48.50;;;;;;6003936;22;45126;-62
2023/12/06 07:03:18;;;;;;;7.63;4.47;;;15.30;48.70;;;;;;6008972;22;45243;-62
2023/12/06 07:06:09;;;;;;;6.90;4.45;;;15.30;49.20;;;;;;5977799;22;45205;-62
2023/12/06 07:08:43;;;;;;;7.32;4.53;;;15.30;49.60;;;;;;5969975;22;46543;-63
2023/12/06 07:11:38;;;;;;;6.28;3.83;;;15.30;49.60;;;;;;6003064;22;45198;-63
2023/12/06 07:14:04;;;;;;;6.03;4.20;;;15.30;49.60;;;;;;5974663;22;45388;-63
2023/12/06 07:16:33;;;;;;;6.28;4.03;;;15.40;49.70;;;;;;5980443;22;45339;-63
2023/12/06 07:19:23;;;;;;;5.50;4.00;;;15.40;49.70;;;;;;5973111;22;46535;-63
2023/12/06 07:22:16;;;;;;;5.47;3.80;;;15.40;49.70;;;;;;5980650;22;45272;-63
2023/12/06 07:25:05;;;;;;;5.63;3.83;;;15.40;49.70;;;;;;5980096;22;45402;-63
2023/12/06 07:27:32;;;;;;;5.75;3.80;;;15.40;49.70;;;;;;6000600;22;45336;-63
2023/12/06 07:30:10;;;;;;;6.00;3.65;;;15.40;49.70;;;;;;6009552;22;47065;-63
2023/12/06 07:36:19;;;;;;;4.47;3.17;;;15.40;49.70;;;;;;5984044;22;45265;-63
2023/12/06 07:39:45;;;;;;;4.57;3.35;;;15.30;49.60;;;;;;5972151;22;45217;-63
2023/12/06 07:42:39;;;;;;;7.78;3.75;;;15.30;49.60;;;;;;5990006;22;47283;-63
2023/12/06 07:45:34;;;;;;;5.25;3.22;;;15.30;49.60;;;;;;6009109;22;45290;-63
2023/12/06 07:48:12;;;;;;;5.18;3.72;;;15.30;49.90;;;;;;5966897;22;45245;-63
2023/12/06 07:51:06;;;;;;;5.53;3.42;;;15.30;50.00;;;;;;5991501;22;45137;-63
2023/12/06 07:53:51;;;;;;;5.15;3.40;;;15.30;50.10;;;;;;5955259;22;47421;-63
2023/12/06 07:56:17;;;;;;;5.57;3.63;;;15.30;50.20;;;;;;5959730;22;45233;-63
2023/12/06 07:59:14;;;;;;;6.85;3.13;;;15.30;50.20;;;;;;5977268;22;45413;-63
2023/12/06 08:02:12;;;;;;;5.03;3.33;;;15.30;50.40;;;;;;6011258;22;45450;-63
2023/12/06 08:04:52;;;;;;;6.15;3.22;;;15.30;50.30;;;;;;5973892;22;46479;-63
2023/12/06 08:07:33;;;;;;;4.70;3.17;;;15.30;50.60;;;;;;5966410;22;45388;-63
2023/12/06 08:10:30;;;;;;;4.50;3.30;;;15.30;50.70;;;;;;5998528;22;45063;-63
2023/12/06 08:13:07;;;;;;;4.28;2.85;;;15.30;50.80;;;;;;5961201;22;45310;-63
2023/12/06 08:15:48;;;;;;;3.80;2.97;;;15.30;51.10;;;;;;5944019;22;46498;-63
2023/12/06 08:18:17;;;;;;;5.22;3.28;;;15.30;51.20;;;;;;5974604;22;45315;-63
2023/12/06 08:20:43;;;;;;;5.82;3.13;;;15.30;51.40;;;;;;6008703;22;45218;-64
2023/12/06 08:26:42;;;;;;;4.93;3.25;;;15.30;51.30;;;;;;5995308;22;45278;-63
2023/12/06 08:29:35;;;;;;;4.88;2.92;;;15.30;51.50;;;;;;5987965;22;45182;-63
2023/12/06 08:32:02;;;;;;;3.78;2.92;;;15.30;51.60;;;;;;5979259;22;45356;-63
2023/12/06 08:34:39;;;;;;;5.45;3.08;;;15.30;51.70;;;;;;5983949;22;45299;-63
2023/12/06 08:37:19;;;;;;;5.00;3.00;;;15.30;51.60;;;;;;5961239;22;46161;-63
2023/12/06 08:39:49;;;;;;;4.75;3.13;;;15.30;51.60;;;;;;5993521;22;45244;-63
2023/12/06 08:42:29;;;;;;;4.53;3.00;;;15.30;51.70;;;;;;5984058;22;45348;-63
2023/12/06 08:44:55;;;;;;;4.47;3.00;;;15.30;51.70;;;;;;5977591;22;45300;-63
2023/12/06 08:47:33;;;;;;;4.43;2.92;;;15.30;51.80;;;;;;6002925;22;47260;-63
2023/12/06 08:50:01;;;;;;;5.70;2.88;;;15.30;51.80;;;;;;5987434;22;45230;-64
2023/12/06 08:52:35;;;;;;;4.60;3.28;;;15.30;52.00;;;;;;5984841;22;45247;-64
2023/12/06 08:55:13;;;;;;;4.40;2.88;;;15.30;52.10;;;;;;5997386;22;45462;-64
2023/12/06 08:57:43;;;;;;;4.97;3.10;;;15.30;52.20;;;;;;5976831;22;47309;-64
2023/12/06 09:00:14;;;;;;;5.47;3.47;;;15.30;52.20;;;;;;5969948;22;45341;-64
2023/12/06 09:03:14;;;;;;;4.45;2.72;;;15.30;52.20;;;;;;6019876;22;45272;-64
2023/12/06 09:06:04;;;;;;;4.78;2.92;;;15.30;52.10;;;;;;5965213;22;45248;-64
2023/12/06 09:08:59;;;;;;;5.22;3.20;;;15.30;52.20;;;;;;5981352;22;45682;-64
2023/12/06 09:11:27;;;;;;;3.85;2.75;;;15.30;52.30;;;;;;5969585;22;45195;-64
2023/12/06 09:13:54;;;;;;;3.97;2.67;;;15.30;52.30;;;;;;5965826;22;45193;-64
2023/12/06 09:16:45;;;;;;;4.15;2.50;;;15.30;52.50;;;;;;6006287;22;45320;-64
2023/12/06 09:19:23;;;;;;;4.45;3.22;;;15.30;52.80;;;;;;5986722;22;47465;-64
2023/12/06 09:22:15;;;;;;;3.97;2.78;;;15.30;52.90;;;;;;5984410;22;45126;-64
2023/12/06 09:24:43;;;;;;;3.50;2.35;;;15.30;53.20;;;;;;5977380;22;45305;-64
2023/12/06 09:27:31;;;;;;;3.75;2.90;;;15.30;53.20;;;;;;5995690;22;45197;-64
2023/12/06 09:29:58;;;;;;;4.05;2.78;;;15.30;53.00;;;;;;5958711;22;46950;-64
2023/12/06 09:32:25;;;;;;;3.25;2.58;;;15.30;53.10;;;;;;5991708;22;45649;-64
2023/12/06 09:35:20;;;;;;;3.80;2.75;;;15.40;53.10;;;;;;5981574;22;45258;-64
2023/12/06 09:37:46;;;;;;;3.85;2.85;;;15.30;52.90;;;;;;5978888;22;45243;-64
2023/12/06 09:40:14;;;;;;;4.93;3.13;;;15.40;53.30;;;;;;5978473;22;46435;-64
2023/12/06 09:42:45;;;;;;;5.03;2.83;;;15.40;53.20;;;;;;5971083;22;45334;-64
2023/12/06 09:45:15;;;;;;;3.60;2.58;;;15.40;53.00;;;;;;5965304;22;45326;-64
2023/12/06 09:47:43;;;;;;;4.03;2.63;;;15.40;53.00;;;;;;5974549;22;45386;-65
2023/12/06 09:50:24;;;;;;;3.95;2.90;;;15.40;53.30;;;;;;5957303;22;46354;-64
2023/12/06 09:53:10;;;;;;;3.70;2.60;;;15.30;53.20;;;;;;5986857;22;45436;-64
2023/12/06 09:55:57;;;;;;;4.50;2.85;;;15.30;53.30;;;;;;5971013;22;45277;-64
2023/12/06 09:58:34;;;;;;;4.18;2.70;;;15.30;53.60;;;;;;5969289;22;45617;-64
2023/12/06 10:04:23;;;;;;;4.03;2.70;;;15.30;53.50;;;;;;5932597;22;45337;-64
2023/12/06 10:07:32;;;;;;;5.57;3.15;;;15.30;53.60;;;;;;5986189;22;45509;-64
2023/12/06 10:10:15;;;;;;;3.70;2.42;;;15.30;53.90;;;;;;5985345;22;45328;-64
2023/12/06 10:15:42;;;;;;;3.42;2.60;;;15.30;54.10;;;;;;5956043;22;45452;-63
2023/12/06 10:18:55;;;;;;;5.80;2.90;;;15.30;54.10;;;;;;6022371;22;45350;-63
2023/12/06 10:21:47;;;;;;;3.92;2.75;;;15.40;54.40;;;;;;5978024;22;45149;-63
2023/12/06 10:24:14;;;;;;;4.25;2.83;;;15.40;54.20;;;;;;5998258;22;47210;-64
2023/12/06 10:27:02;;;;;;;3.75;2.55;;;15.40;54.10;;;;;;5982540;22;45176;-64
2023/12/06 10:29:30;;;;;;;4.45;2.75;;;15.40;54.20;;;;;;5983273;22;45230;-64
2023/12/06 10:32:18;;;;;;;5.07;3.13;;;15.40;54.30;;;;;;5969583;22;45094;-63
2023/12/06 10:34:45;;;;;;;4.88;2.80;;;15.40;54.20;;;;;;5998517;22;46445;-63
2023/12/06 10:40:23;;;;;;;4.30;3.00;;;15.40;54.30;;;;;;5965219;22;45128;-64
2023/12/06 10:43:09;;;;;;;3.90;2.60;;;15.40;54.30;;;;;;5969480;22;45477;-64
2023/12/06 10:45:36;;;;;;;5.13;3.10;;;15.40;54.30;;;;;;5998062;22;45658;-64
2023/12/06 10:48:09;;;;;;;5.15;2.97;;;15.30;54.00;;;;;;5989021;22;45397;-64
2023/12/06 10:50:45;;;;;;;6.88;2.92;;;15.30;54.10;;;;;;5957421;22;45168;-64
2023/12/06 10:53:41;;;;;;;4.07;2.83;;;15.30;54.30;;;;;;5984630;22;45379;-64
2023/12/06 10:56:43;;;;;;;5.72;2.40;;;15.30;54.30;;;;;;6008364;22;46513;-64
2023/12/06 10:59:21;;;;;;;4.85;2.70;;;15.30;54.60;;;;;;5937204;22;45393;-64
2023/12/06 11:02:10;;;;;;;3.78;2.53;;;15.40;54.80;;;;;;5984819;22;45383;-64
2023/12/06 11:04:53;;;;;;;4.90;2.63;;;15.40;54.70;;;;;;5982161;22;45242;-64
2023/12/06 11:11:25;;;;;;;4.53;2.63;;;15.40;54.70;;;;;;5948519;22;45305;-64
2023/12/06 11:14:42;;;;;;;4.43;2.92;;;15.40;54.70;;;;;;6010545;22;45206;-64
2023/12/06 11:20:41;;;;;;;4.95;2.95;;;15.50;54.60;;;;;;5930179;22;45576;-64
2023/12/06 11:23:33;;;;;;;2.95;2.33;;;15.40;54.50;;;;;;5982250;22;45164;-64
2023/12/06 11:26:17;;;;;;;4.18;2.75;;;15.40;54.40;;;;;;6000567;22;45534;-64
2023/12/06 11:28:44;;;;;;;4.82;2.88;;;15.40;54.70;;;;;;5995949;22;45244;-64
2023/12/06 11:31:39;;;;;;;3.90;2.92;;;15.40;54.70;;;;;;5992506;22;46514;-63
2023/12/06 11:34:23;;;;;;;4.82;2.90;;;15.40;54.80;;;;;;5958603;22;45228;-63
2023/12/06 11:40:17;;;;;;;4.78;3.15;;;15.30;53.70;;;;;;5954467;22;45392;-63
2023/12/06 11:43:08;;;;;;;5.60;3.38;;;15.30;53.70;;;;;;5999306;22;46625;-63
2023/12/06 11:45:39;;;;;;;5.68;3.20;;;15.30;53.70;;;;;;5979039;22;45222;-63
2023/12/06 11:48:20;;;;;;;4.70;3.08;;;15.30;53.40;;;;;;5984462;22;45390;-63
2023/12/06 11:56:44;;;;;;;6.10;3.53;;;15.30;53.00;;;;;;5974860;22;45538;-63
2023/12/06 11:59:26;;;;;;;7.15;3.78;;;15.30;53.00;;;;;;6012284;22;45142;-63
2023/12/06 12:01:53;;;;;;;4.70;2.72;;;15.30;52.90;;;;;;5983215;22;45142;-63
2023/12/06 12:04:44;;;;;;;4.30;2.95;;;15.30;52.90;;;;;;5993958;22;46709;-62
2023/12/06 12:07:12;;;;;;;6.95;3.50;;;15.30;53.50;;;;;;5984563;22;45362;-64
2023/12/06 12:10:13;;;;;;;5.13;3.20;;;15.30;52.60;;;;;;6009430;22;45283;-63
2023/12/06 12:12:48;;;;;;;4.45;2.90;;;15.30;52.50;;;;;;5982298;22;45147;-63
2023/12/06 12:15:39;;;;;;;6.50;3.45;;;15.30;52.50;;;;;;5982336;22;45873;-63
2023/12/06 12:18:16;;;;;;;4.13;2.90;;;15.30;52.50;;;;;;5987998;22;45302;-63
2023/12/06 12:20:45;;;;;;;5.15;3.03;;;15.30;52.30;;;;;;6011164;22;45095;-63
2023/12/06 12:23:38;;;;;;;4.38;2.97;;;15.30;52.10;;;;;;5990023;22;45375;-65
2023/12/06 12:26:32;;;;;;;5.93;3.03;;;15.30;51.80;;;;;;6004231;22;45838;-65
2023/12/06 12:29:00;;;;;;;5.15;3.00;;;15.30;51.60;;;;;;5988269;22;45093;-66
2023/12/06 12:31:43;;;;;;;5.28;3.05;;;15.30;51.50;;;;;;5995010;22;45264;-65
2023/12/06 12:34:09;;;;;;;4.82;3.03;;;15.30;51.10;;;;;;6001204;22;45534;-65
2023/12/06 12:36:49;;;;;;;5.15;2.60;;;15.30;51.10;;;;;;5972485;22;45727;-65
2023/12/06 12:39:52;;;;;;;6.57;3.00;;;15.30;50.90;;;;;;5987479;22;45115;-66
2023/12/06 12:42:52;;;;;;;5.20;3.28;;;15.30;51.10;;;;;;5981162;22;45307;-66
2023/12/06 12:46:10;;;;;;;6.72;2.88;;;15.30;51.00;;;;;;6021011;22;45416;-66
2023/12/06 12:49:04;;;;;;;7.15;3.10;;;15.30;50.70;;;;;;6002762;22;45550;-66
2023/12/06 12:52:01;;;;;;;6.78;3.20;;;15.30;50.80;;;;;;6001602;22;45350;-66
2023/12/06 12:54:55;;;;;;;6.43;3.30;;;15.30;50.80;;;;;;5993402;22;45159;-65
2023/12/06 12:57:22;;;;;;;5.10;2.83;;;15.30;50.80;;;;;;5973296;22;45280;-65
2023/12/06 13:00:10;;;;;;;5.75;3.13;;;15.30;50.70;;;;;;5974278;22;47107;-66
2023/12/06 13:06:03;;;;;;;3.20;2.58;;;15.30;50.50;;;;;;5959425;22;45329;-65
2023/12/06 13:08:39;;;;;;;5.72;2.83;;;15.30;50.50;;;;;;5990872;22;45333;-65
2023/12/06 13:11:08;;;;;;;5.05;2.75;;;15.30;50.40;;;;;;6006726;22;47225;-66
2023/12/06 13:14:04;;;;;;;4.93;2.53;;;15.30;50.40;;;;;;5970667;22;45306;-66
2023/12/06 13:16:31;;;;;;;4.47;2.83;;;15.30;50.30;;;;;;5989853;22;45099;-66
2023/12/06 13:19:00;;;;;;;5.47;2.92;;;15.20;50.30;;;;;;5967023;22;45155;-65
2023/12/06 13:21:30;;;;;;;6.93;3.35;;;15.30;50.40;;;;;;5980704;22;45377;-66
2023/12/06 13:24:18;;;;;;;4.90;2.63;;;15.30;50.30;;;;;;6005291;22;45188;-66
2023/12/06 13:27:26;;;;;;;5.10;2.95;;;15.30;50.00;;;;;;6025407;22;45398;-66
2023/12/06 13:30:15;;;;;;;8.88;2.97;;;15.30;50.10;;;;;;6018806;22;45227;-65
2023/12/06 13:33:00;;;;;;;4.93;2.85;;;15.30;50.60;;;;;;6010703;22;47672;-64
2023/12/06 13:35:34;;;;;;;6.20;2.80;;;15.30;49.80;;;;;;6009342;22;45226;-66
2023/12/06 13:38:42;;;;;;;6.50;2.95;;;15.30;50.00;;;;;;5997585;22;45292;-65
2023/12/06 13:41:09;;;;;;;3.67;2.72;;;15.40;50.60;;;;;;5997438;22;45256;-65
2023/12/06 13:44:02;;;;;;;3.97;2.65;;;15.40;50.30;;;;;;6001361;22;46655;-64
2023/12/06 13:46:51;;;;;;;6.78;3.03;;;15.40;50.30;;;;;;6000128;22;45221;-65
2023/12/06 13:49:24;;;;;;;3.63;2.65;;;15.40;51.10;;;;;;5982892;22;45206;-65
2023/12/06 13:52:24;;;;;;;4.22;2.45;;;15.50;52.00;;;;;;6003251;22;45364;-65
2023/12/06 13:55:22;;;;;;;5.07;2.58;;;15.50;51.90;;;;;;5981944;22;46808;-64
2023/12/06 13:57:48;;;;;;;4.90;2.47;;;15.50;51.40;;;;;;5968937;22;45347;-64
2023/12/06 14:00:17;;;;;;;5.05;2.90;;;15.50;51.20;;;;;;5997756;22;45383;-64
2023/12/06 14:03:12;;;;;;;4.22;2.58;;;15.50;52.10;;;;;;5988215;22;45157;-64
2023/12/06 14:06:00;;;;;;;6.60;2.92;;;15.50;50.80;;;;;;5964341;22;46463;-65
2023/12/06 14:24:51;;;;;;;5.32;2.65;;;15.50;49.90;;;;;;6285618;22;1265635;-64
2023/12/06 14:28:00;;;;;;;5.45;2.70;;;15.50;49.80;;;;;;6043566;22;45320;-64
2023/12/06 14:30:40;;;;;;;4.03;2.38;;;15.40;49.70;;;;;;6022177;22;45098;-64
2023/12/06 14:33:39;;;;;;;4.03;2.30;;;15.40;49.70;;;;;;5997603;22;47282;-65
2023/12/06 14:36:07;;;;;;;5.80;2.30;;;15.40;49.70;;;;;;6024255;22;45183;-65
2023/12/06 14:38:48;;;;;;;5.97;2.58;;;15.40;49.70;;;;;;6021026;22;45039;-65
2023/12/06 14:41:59;;;;;;;3.65;1.98;;;15.40;49.70;;;;;;6034434;22;45182;-65
2023/12/06 14:44:26;;;;;;;5.50;2.45;;;15.30;49.60;;;;;;5994606;22;46303;-65
2023/12/06 14:46:53;;;;;;;6.10;2.50;;;15.30;49.60;;;;;;6034917;22;45096;-65
2023/12/06 14:49:48;;;;;;;5.32;2.20;;;15.30;49.60;;;;;;6020337;22;45140;-65
2023/12/06 14:52:31;;;;;;;4.50;2.30;;;15.30;49.60;;;;;;6012613;22;44905;-65
2023/12/06 14:55:19;;;;;;;4.03;2.00;;;15.30;49.60;;;;;;6031220;22;46593;-65
2023/12/06 14:57:49;;;;;;;4.75;2.22;;;15.40;49.70;;;;;;6036752;22;45260;-65
2023/12/06 15:00:46;;;;;;;5.22;2.45;;;15.40;49.70;;;;;;6057186;22;45143;-64